Time;durP1;ratioP1;P1;durP2;ratioP2;P2;SDS_P1;SDS_P2;PMS_P1;PMS_P2;Temp;Humidity;BMP_temperature;BMP_pressure;BME280_temperature;BME280_humidity;BME280_pressure;Samples;Min_cycle;Max_cycle;Signal;HPM_P1;HPM_P2
2022/06/28 00:02:19;;;;;;;;;1.33;0.00;;;;;23.47;52.40;101865.47;5062088;28;45215;-67
2022/06/28 00:04:44;;;;;;;;;4.00;4.00;;;;;23.36;53.34;101869.69;5065247;28;45400;-67
2022/06/28 00:07:10;;;;;;;;;3.00;3.00;;;;;23.34;53.07;101855.16;5063629;28;45478;-67
2022/06/28 00:09:35;;;;;;;;;3.67;3.67;;;;;23.26;52.65;101849.78;5063485;28;48229;-67
2022/06/28 00:12:01;;;;;;;;;2.33;2.33;;;;;23.21;53.06;101849.56;5062207;28;45483;-67
2022/06/28 00:17:10;;;;;;;;;1.00;1.00;;;;;23.18;54.10;101855.50;5061235;28;45164;-67
2022/06/28 00:19:35;;;;;;;;;4.33;2.67;;;;;23.13;53.42;101844.19;5063918;28;45570;-67
2022/06/28 00:22:01;;;;;;;;;1.00;0.00;;;;;23.07;54.42;101848.63;5061883;28;45392;-67
2022/06/28 00:24:26;;;;;;;;;4.67;2.00;;;;;23.09;53.87;101849.25;5060584;28;45372;-67
2022/06/28 00:26:52;;;;;;;;;2.00;2.00;;;;;23.07;53.21;101845.00;5063412;28;45310;-67
2022/06/28 00:29:18;;;;;;;;;2.33;2.00;;;;;23.04;53.45;101848.16;5061605;28;46165;-67
2022/06/28 00:31:44;;;;;;;;;2.67;2.00;;;;;23.03;54.19;101854.75;5062964;28;45572;-67
2022/06/28 00:34:09;;;;;;;;;4.00;2.00;;;;;22.93;54.53;101852.38;5062654;28;45440;-69
2022/06/28 00:36:35;;;;;;;;;4.67;3.00;;;;;22.88;55.74;101850.19;5064247;28;45365;-67
2022/06/28 00:39:00;;;;;;;;;3.00;2.00;;;;;22.90;54.58;101847.22;5061540;28;45433;-68
2022/06/28 00:41:26;;;;;;;;;2.00;2.00;;;;;22.94;54.19;101853.22;5064123;28;45308;-69
2022/06/28 00:43:53;;;;;;;;;2.00;2.00;;;;;22.94;55.29;101848.50;5063596;28;45161;-67
2022/06/28 00:46:19;;;;;;;;;2.00;2.00;;;;;22.86;55.47;101848.69;5065513;28;45282;-68
2022/06/28 00:48:45;;;;;;;;;3.67;3.33;;;;;22.70;56.75;101838.75;5052759;28;47728;-67
2022/06/28 00:51:11;;;;;;;;;1.00;1.00;;;;;22.71;55.81;101839.59;5064819;28;45369;-67
2022/06/28 00:53:36;;;;;;;;;1.67;1.67;;;;;22.63;57.36;101834.22;5055132;28;45542;-67
2022/06/28 00:56:02;;;;;;;;;0.00;0.00;;;;;22.51;56.83;101840.28;5065564;28;45328;-67
2022/06/28 00:58:27;;;;;;;;;2.00;2.00;;;;;22.53;57.47;101845.63;5057221;28;46736;-67
2022/06/28 01:00:54;;;;;;;;;2.00;2.00;;;;;22.47;56.96;101844.53;5064444;28;45481;-67
2022/06/28 01:03:21;;;;;;;;;2.00;2.00;;;;;22.45;56.87;101840.22;5060051;28;45386;-67
2022/06/28 01:05:47;;;;;;;;;2.00;2.00;;;;;22.38;58.16;101834.63;5064490;28;45341;-67
2022/06/28 01:08:13;;;;;;;;;1.33;1.33;;;;;22.42;57.59;101830.44;5060608;28;46342;-67
2022/06/28 01:10:39;;;;;;;;;2.33;2.00;;;;;22.36;58.23;101839.50;5064037;28;45484;-67
2022/06/28 01:13:05;;;;;;;;;2.33;2.33;;;;;22.37;58.18;101841.22;5060189;28;45930;-67
2022/06/28 01:15:32;;;;;;;;;3.67;2.00;;;;;22.33;58.08;101839.94;5063436;28;45536;-67
2022/06/28 01:18:00;;;;;;;;;2.33;2.00;;;;;22.30;58.10;101837.53;5057592;28;47055;-67
2022/06/28 01:20:26;;;;;;;;;2.00;1.00;;;;;22.33;57.47;101845.47;5064122;28;45413;-67
2022/06/28 01:22:53;;;;;;;;;0.67;0.67;;;;;22.35;57.64;101843.34;5069990;28;45281;-67
2022/06/28 01:25:19;;;;;;;;;2.33;2.33;;;;;22.30;58.37;101840.31;5055701;28;45316;-67
2022/06/28 01:27:45;;;;;;;;;1.33;1.33;;;;;22.34;57.61;101836.09;5058981;28;46479;-67
2022/06/28 01:30:11;;;;;;;;;2.67;2.67;;;;;22.38;58.12;101842.94;5064060;28;45400;-67
2022/06/28 01:32:37;;;;;;;;;0.67;0.67;;;;;22.20;58.09;101837.03;5059837;28;45385;-67
2022/06/28 01:35:04;;;;;;;;;1.67;1.67;;;;;22.17;59.26;101834.66;5064526;28;45306;-69
2022/06/28 01:37:29;;;;;;;;;0.67;0.67;;;;;22.07;58.29;101839.66;5060514;28;45500;-67
2022/06/28 01:39:54;;;;;;;;;3.33;2.67;;;;;22.07;59.17;101839.66;5062791;28;45346;-68
2022/06/28 01:42:20;;;;;;;;;2.33;2.33;;;;;22.09;57.93;101841.19;5062443;28;45243;-68
2022/06/28 01:44:46;;;;;;;;;4.00;1.00;;;;;22.04;59.50;101845.59;5057491;28;45586;-67
2022/06/28 01:47:12;;;;;;;;;2.00;2.00;;;;;21.87;59.43;101853.25;5061623;28;46074;-67
2022/06/28 01:49:38;;;;;;;;;3.67;3.00;;;;;21.86;59.65;101850.69;5062310;28;45439;-68
2022/06/28 01:52:04;;;;;;;;;2.67;2.67;;;;;21.88;59.49;101840.28;5062280;28;45519;-67
2022/06/28 01:54:30;;;;;;;;;2.33;2.33;;;;;21.81;58.94;101834.66;5058290;28;45425;-68
2022/06/28 01:56:55;;;;;;;;;2.33;2.33;;;;;21.84;59.25;101844.50;5060372;28;47130;-68
2022/06/28 01:59:21;;;;;;;;;3.00;3.00;;;;;21.85;58.34;101844.28;5059221;28;45530;-67
2022/06/28 02:01:47;;;;;;;;;2.00;2.00;;;;;21.86;58.57;101834.06;5061364;28;45334;-68
2022/06/28 02:04:32;;;;;;;;;2.67;1.67;;;;;21.88;57.81;101829.22;5063383;28;45531;-68
2022/06/28 02:06:58;;;;;;;;;3.00;1.67;;;;;21.86;57.50;101832.16;5060614;28;45391;-67
2022/06/28 02:09:25;;;;;;;;;1.67;1.67;;;;;21.81;58.40;101831.03;5062331;28;45405;-67
2022/06/28 02:11:51;;;;;;;;;1.00;1.00;;;;;21.65;60.13;101833.00;5061422;28;45446;-67
2022/06/28 02:14:17;;;;;;;;;0.67;0.67;;;;;21.52;59.86;101826.44;5061671;28;45274;-68
2022/06/28 02:16:43;;;;;;;;;2.33;2.33;;;;;21.51;60.11;101822.81;5061233;28;46354;-67
2022/06/28 02:19:08;;;;;;;;;1.67;1.67;;;;;21.56;58.96;101828.63;5059980;28;45494;-68
2022/06/28 02:21:36;;;;;;;;;2.33;1.67;;;;;21.58;59.34;101828.44;5061552;28;45369;-67
2022/06/28 02:24:03;;;;;;;;;1.67;1.67;;;;;21.61;59.20;101833.59;5059012;28;45389;-67
2022/06/28 02:26:28;;;;;;;;;1.33;1.33;;;;;21.49;59.31;101824.06;5062300;28;45349;-67
2022/06/28 02:28:53;;;;;;;;;4.67;1.67;;;;;21.52;59.35;101821.78;5059213;28;45499;-67
2022/06/28 02:31:19;;;;;;;;;3.67;2.67;;;;;21.44;59.96;101824.66;5063635;28;45458;-67
2022/06/28 02:33:44;;;;;;;;;4.00;4.00;;;;;21.45;59.95;101822.75;5059963;28;45329;-68
2022/06/28 02:41:38;;;;;;;;;2.33;2.33;;;;;21.43;58.95;101824.84;5061903;28;45331;-69
2022/06/28 02:44:04;;;;;;;;;2.33;2.00;;;;;21.40;59.42;101823.34;5056368;28;45278;-68
2022/06/28 02:46:29;;;;;;;;;1.33;1.33;;;;;21.33;60.10;101819.63;5061995;28;46522;-67
2022/06/28 02:48:55;;;;;;;;;1.67;1.67;;;;;21.34;58.96;101821.31;5054470;28;45389;-67
2022/06/28 02:51:20;;;;;;;;;4.33;3.00;;;;;21.29;60.18;101813.63;5061840;28;45370;-67
2022/06/28 02:53:47;;;;;;;;;5.00;3.33;;;;;21.34;59.85;101830.47;5055547;28;45333;-67
2022/06/28 02:56:12;;;;;;;;;2.00;2.00;;;;;21.26;59.34;101816.75;5062805;28;45233;-67
2022/06/28 02:58:38;;;;;;;;;2.33;1.67;;;;;21.30;59.51;101826.41;5055618;28;45504;-67
2022/06/28 03:01:04;;;;;;;;;4.00;4.00;;;;;21.21;60.26;101832.22;5062384;28;45279;-67
2022/06/28 03:03:29;;;;;;;;;3.00;3.00;;;;;21.11;61.44;101834.41;5060487;28;45595;-67
2022/06/28 03:05:55;;;;;;;;;2.00;2.00;;;;;21.08;60.12;101820.94;5062317;28;46618;-67
2022/06/28 03:08:20;;;;;;;;;2.67;2.67;;;;;21.16;60.68;101837.44;5059158;28;45250;-67
2022/06/28 03:10:45;;;;;;;;;3.67;3.33;;;;;21.13;60.82;101826.75;5062414;28;45417;-67
2022/06/28 03:13:11;;;;;;;;;3.00;3.00;;;;;21.05;61.17;101827.69;5059234;28;45620;-66
2022/06/28 03:15:36;;;;;;;;;3.00;3.00;;;;;21.06;60.45;101820.28;5062237;28;45670;-66
2022/06/28 03:18:02;;;;;;;;;4.33;4.33;;;;;20.96;61.58;101818.69;5057475;28;45444;-67
2022/06/28 03:20:28;;;;;;;;;3.00;3.00;;;;;20.89;61.84;101825.97;5062510;28;46055;-69
2022/06/28 03:22:54;;;;;;;;;2.33;2.33;;;;;20.94;61.85;101825.44;5056636;28;45440;-67
2022/06/28 03:25:19;;;;;;;;;4.33;3.00;;;;;20.85;61.20;101818.28;5062326;28;46607;-68
2022/06/28 03:27:45;;;;;;;;;6.00;4.33;;;;;20.99;61.23;101820.19;5055977;28;45345;-68
2022/06/28 03:30:11;;;;;;;;;4.33;4.33;;;;;20.97;61.78;101819.50;5062380;28;45392;-68
2022/06/28 03:32:36;;;;;;;;;6.00;6.00;;;;;21.05;60.01;101832.38;5057427;28;45477;-68
2022/06/28 03:35:01;;;;;;;;;3.33;3.33;;;;;20.97;59.79;101819.50;5062126;28;45312;-67
2022/06/28 03:37:27;;;;;;;;;4.00;2.67;;;;;20.96;60.36;101807.63;5059598;28;45345;-69
2022/06/28 03:39:52;;;;;;;;;4.33;3.00;;;;;21.12;60.15;101822.25;5062321;28;45657;-67
2022/06/28 03:42:18;;;;;;;;;4.33;4.33;;;;;21.09;59.45;101812.47;5060116;28;45620;-66
2022/06/28 03:44:43;;;;;;;;;4.00;4.00;;;;;21.01;60.42;101820.84;5055642;28;45425;-69
2022/06/28 03:47:08;;;;;;;;;4.00;4.00;;;;;21.07;60.00;101830.28;5060040;28;45254;-67
2022/06/28 03:49:34;;;;;;;;;4.00;4.00;;;;;21.13;60.63;101835.03;5054979;28;45289;-67
2022/06/28 03:51:59;;;;;;;;;4.00;4.00;;;;;21.04;60.39;101831.50;5060831;28;45223;-66
2022/06/28 03:54:25;;;;;;;;;7.00;5.33;;;;;21.08;59.71;101832.84;5060362;28;47092;-66
2022/06/28 03:56:50;;;;;;;;;6.00;4.33;;;;;21.16;59.46;101831.91;5059557;28;45374;-66
2022/06/28 03:59:16;;;;;;;;;7.00;4.00;;;;;21.17;60.53;101834.50;5055292;28;45877;-66
2022/06/28 04:01:41;;;;;;;;;5.00;4.00;;;;;21.13;59.90;101837.81;5058436;28;45580;-66
2022/06/28 04:04:06;;;;;;;;;4.00;4.00;;;;;21.21;59.14;101843.25;5061557;28;46314;-67
2022/06/28 04:06:32;;;;;;;;;7.00;5.33;;;;;21.26;59.14;101838.88;5060847;28;45322;-66
2022/06/28 04:08:57;;;;;;;;;9.33;5.00;;;;;21.30;59.24;101829.16;5058930;28;45442;-68
2022/06/28 04:11:22;;;;;;;;;7.33;5.67;;;;;21.32;58.45;101835.38;5060693;28;45413;-68
2022/06/28 04:13:51;;;;;;;;;7.00;5.00;;;;;21.41;59.27;101841.63;5060202;28;46299;-66
2022/06/28 04:16:17;;;;;;;;;4.33;4.33;;;;;21.35;59.32;101839.63;5064017;28;45323;-68
2022/06/28 04:18:43;;;;;;;;;5.33;4.00;;;;;21.36;59.28;101825.63;5060441;28;45135;-68
2022/06/28 04:21:10;;;;;;;;;6.00;4.00;;;;;21.39;58.82;101834.59;5065260;28;45314;-66
2022/06/28 04:23:36;;;;;;;;;5.67;5.67;;;;;21.47;58.09;101831.72;5059100;28;45491;-69
2022/06/28 04:26:02;;;;;;;;;6.67;5.33;;;;;21.40;58.36;101837.16;5064722;28;45452;-68
2022/06/28 04:28:28;;;;;;;;;3.33;3.33;;;;;21.30;59.18;101825.53;5059884;28;45468;-69
2022/06/28 04:30:53;;;;;;;;;3.00;3.00;;;;;21.28;59.24;101833.16;5065114;28;45526;-69
2022/06/28 04:33:18;;;;;;;;;5.33;5.33;;;;;21.38;59.05;101838.41;5061211;28;45847;-69
2022/06/28 04:35:44;;;;;;;;;5.67;5.67;;;;;21.47;58.88;101838.09;5064194;28;45348;-68
2022/06/28 04:38:10;;;;;;;;;4.00;4.00;;;;;21.56;58.88;101850.75;5061510;28;45383;-69
2022/06/28 04:40:35;;;;;;;;;3.67;3.67;;;;;21.57;58.42;101844.16;5062982;28;45515;-69
2022/06/28 04:43:02;;;;;;;;;6.33;3.00;;;;;21.61;58.08;101845.50;5061922;28;45483;-68
2022/06/28 04:45:28;;;;;;;;;6.00;6.00;;;;;21.65;57.99;101848.72;5064033;28;45423;-68
2022/06/28 04:47:53;;;;;;;;;10.67;5.67;;;;;21.63;58.06;101854.44;5058224;28;45498;-69
2022/06/28 04:50:19;;;;;;;;;6.67;5.33;;;;;21.73;58.41;101854.16;5061154;28;45247;-67
2022/06/28 04:52:44;;;;;;;;;4.33;3.33;;;;;21.86;57.35;101847.91;5056500;28;47896;-69
2022/06/28 04:55:09;;;;;;;;;5.33;5.00;;;;;21.90;55.80;101832.66;5063219;28;45268;-68
2022/06/28 04:57:35;;;;;;;;;5.67;5.67;;;;;22.11;55.70;101852.06;5061627;28;45309;-68
2022/06/28 05:00:00;;;;;;;;;3.67;3.67;;;;;22.11;55.71;101854.81;5056992;28;45450;-69
2022/06/28 05:02:26;;;;;;;;;4.00;3.33;;;;;22.04;55.78;101849.22;5061906;28;46714;-69
2022/06/28 05:04:51;;;;;;;;;7.33;5.67;;;;;22.04;56.45;101853.91;5059823;28;45361;-68
2022/06/28 05:07:16;;;;;;;;;6.67;6.33;;;;;22.17;56.01;101851.25;5061534;28;45917;-68
2022/06/28 05:09:42;;;;;;;;;1.33;1.33;;;;;22.27;55.54;101846.25;5060954;28;45595;-69
2022/06/28 05:12:07;;;;;;;;;3.67;3.67;;;;;22.50;54.77;101852.41;5056182;28;46995;-67
2022/06/28 05:14:34;;;;;;;;;4.00;3.00;;;;;23.61;52.61;101859.78;5063454;28;45392;-68
2022/06/28 05:16:59;;;;;;;;;3.00;3.00;;;;;24.34;49.09;101852.53;5061465;28;45531;-68
2022/06/28 05:19:25;;;;;;;;;3.67;2.33;;;;;23.99;49.84;101862.91;5061573;28;45393;-68
2022/06/28 05:21:51;;;;;;;;;4.00;4.00;;;;;23.64;49.81;101839.97;5060311;28;45751;-67
2022/06/28 05:24:16;;;;;;;;;4.00;4.00;;;;;23.66;50.04;101865.59;5055886;28;45462;-67
2022/06/28 05:26:42;;;;;;;;;3.00;3.00;;;;;23.46;50.52;101866.53;5061160;28;45485;-68
2022/06/28 05:29:08;;;;;;;;;3.67;3.67;;;;;23.37;51.12;101859.47;5058299;28;45316;-68
2022/06/28 05:31:33;;;;;;;;;4.67;2.00;;;;;23.12;50.51;101857.19;5060787;28;46077;-68
2022/06/28 05:33:59;;;;;;;;;6.33;4.00;;;;;23.25;50.78;101857.25;5058235;28;45271;-67
2022/06/28 05:36:24;;;;;;;;;3.67;3.67;;;;;23.41;50.08;101855.19;5062369;28;45255;-68
2022/06/28 05:38:50;;;;;;;;;5.67;3.67;;;;;23.66;49.25;101870.28;5060177;28;45496;-67
2022/06/28 05:41:15;;;;;;;;;2.33;2.00;;;;;24.04;48.54;101867.84;5062336;28;46323;-69
2022/06/28 05:43:40;;;;;;;;;3.67;3.00;;;;;24.45;45.85;101853.84;5059346;28;46209;-67
2022/06/28 05:46:06;;;;;;;;;4.33;3.00;;;;;24.96;45.87;101856.84;5078691;28;45285;-67
2022/06/28 05:48:31;;;;;;;;;4.67;4.00;;;;;25.42;44.22;101859.50;5057076;28;45493;-68
2022/06/28 05:50:56;;;;;;;;;3.00;3.00;;;;;25.02;44.35;101852.34;5062046;28;46367;-69
2022/06/28 05:53:22;;;;;;;;;7.00;5.00;;;;;24.73;44.57;101843.34;5071847;27;45415;-69
2022/06/28 05:55:47;;;;;;;;;4.00;4.00;;;;;24.64;44.78;101852.13;5062640;28;45636;-68
2022/06/28 05:58:13;;;;;;;;;3.33;3.00;;;;;24.59;45.92;101854.69;5055714;28;45385;-69
2022/06/28 06:00:39;;;;;;;;;4.67;3.00;;;;;24.57;45.84;101841.00;5060162;28;46765;-69
2022/06/28 06:03:05;;;;;;;;;4.67;2.67;;;;;24.37;45.43;101845.72;5054543;28;45451;-69
2022/06/28 06:05:30;;;;;;;;;3.00;3.00;;;;;24.32;45.51;101843.59;5077623;27;45487;-69
2022/06/28 06:07:56;;;;;;;;;2.67;2.67;;;;;24.27;45.25;101848.91;5056569;28;45504;-69
2022/06/28 06:10:21;;;;;;;;;4.67;2.00;;;;;24.39;45.39;101855.56;5061634;28;45237;-68
2022/06/28 06:12:47;;;;;;;;;3.00;3.00;;;;;24.62;44.96;101848.72;5058042;28;45369;-67
2022/06/28 06:15:12;;;;;;;;;5.00;4.67;;;;;24.47;44.70;101854.50;5062596;28;45263;-68
2022/06/28 06:17:37;;;;;;;;;4.67;3.00;;;;;24.57;45.32;101852.13;5060334;28;45456;-68
2022/06/28 06:20:03;;;;;;;;;2.00;2.00;;;;;24.52;45.14;101818.56;5060638;28;45346;-68
2022/06/28 06:22:32;;;;;;;;;3.00;3.00;;;;;24.52;45.01;101849.13;5059758;28;45713;-68
2022/06/28 06:24:57;;;;;;;;;2.00;2.00;;;;;24.26;45.08;101835.22;5061159;28;45400;-68
2022/06/28 06:27:23;;;;;;;;;2.33;2.33;;;;;24.42;44.77;101835.66;5057920;28;45476;-68
2022/06/28 06:29:48;;;;;;;;;3.33;3.00;;;;;24.56;44.35;101833.75;5059900;28;46599;-68
2022/06/28 06:32:14;;;;;;;;;4.00;4.00;;;;;24.62;44.67;101832.88;5058034;28;45552;-68
2022/06/28 06:34:39;;;;;;;;;2.00;2.00;;;;;24.55;44.77;101826.47;5059395;28;45303;-69
2022/06/28 06:37:05;;;;;;;;;5.00;5.00;;;;;24.65;44.19;101829.69;5057409;28;45405;-67
2022/06/28 06:39:31;;;;;;;;;4.00;2.33;;;;;24.61;45.00;101817.31;5055333;28;47419;-67
2022/06/28 06:41:56;;;;;;;;;3.67;3.33;;;;;24.63;44.91;101815.13;5051981;28;45338;-68
2022/06/28 06:44:21;;;;;;;;;6.00;4.00;;;;;24.75;44.04;101820.91;5061349;28;45273;-69
2022/06/28 06:46:47;;;;;;;;;4.00;4.00;;;;;24.93;44.57;101821.13;5059807;28;45312;-68
2022/06/28 06:49:17;;;;;;;;;2.33;2.33;;;;;24.94;43.39;101819.19;5057729;28;45315;-68
2022/06/28 06:51:44;;;;;;;;;6.67;3.00;;;;;24.97;42.54;101827.97;5059351;28;45800;-67
2022/06/28 06:54:11;;;;;;;;;3.00;2.00;;;;;24.60;43.36;101823.94;5055075;28;45277;-69
2022/06/28 06:56:36;;;;;;;;;2.33;2.00;;;;;24.93;43.26;101818.34;5059785;28;45437;-69
2022/06/28 06:59:02;;;;;;;;;4.33;2.67;;;;;25.08;42.29;101818.94;5054270;28;45365;-68
2022/06/28 07:01:29;;;;;;;;;3.00;3.00;;;;;25.24;42.60;101822.31;5061545;28;45341;-68
2022/06/28 07:03:55;;;;;;;;;4.00;4.00;;;;;25.25;42.11;101813.75;5055008;28;45585;-68
2022/06/28 07:06:21;;;;;;;;;5.00;4.00;;;;;25.42;42.26;101805.78;5060392;28;45368;-68
2022/06/28 07:08:46;;;;;;;;;3.00;1.00;;;;;25.50;41.59;101813.84;5055514;28;45802;-70
2022/06/28 07:11:12;;;;;;;;;3.00;3.00;;;;;25.53;40.75;101807.88;5061107;28;45338;-69
2022/06/28 07:13:37;;;;;;;;;2.00;2.00;;;;;25.62;41.59;101805.72;5054721;28;45310;-67
2022/06/28 07:16:03;;;;;;;;;3.00;1.67;;;;;25.54;40.24;101802.09;5076974;27;45384;-68
2022/06/28 07:18:29;;;;;;;;;3.67;3.00;;;;;25.46;41.06;101809.81;5054510;28;45588;-68
2022/06/28 07:20:55;;;;;;;;;2.00;2.00;;;;;25.38;41.21;101799.81;5060664;28;45310;-69
2022/06/28 07:23:21;;;;;;;;;2.67;2.67;;;;;25.51;41.07;101805.28;5055698;28;45442;-68
2022/06/28 07:25:46;;;;;;;;;4.00;4.00;;;;;25.38;41.46;101788.66;5061731;28;45404;-68
2022/06/28 07:28:12;;;;;;;;;4.33;1.00;;;;;25.55;41.23;101772.34;5056916;28;45525;-69
2022/06/28 07:30:37;;;;;;;;;9.00;6.00;;;;;25.61;40.88;101770.63;5061163;28;45306;-67
2022/06/28 07:33:03;;;;;;;;;4.00;3.00;;;;;25.87;40.47;101776.00;5053071;28;45333;-68
2022/06/28 07:35:29;;;;;;;;;4.33;3.00;;;;;25.87;40.39;101776.84;5059826;28;45274;-70
2022/06/28 07:37:54;;;;;;;;;2.33;2.33;;;;;25.98;39.71;101772.50;5059896;28;46348;-68
2022/06/28 07:40:20;;;;;;;;;1.00;1.00;;;;;26.18;40.55;101769.56;5061365;28;45231;-68
2022/06/28 07:42:46;;;;;;;;;3.00;3.00;;;;;26.35;39.77;101762.41;5057052;28;45304;-69
2022/06/28 07:45:12;;;;;;;;;1.00;1.00;;;;;26.33;39.45;101759.81;5055838;28;45519;-68
2022/06/28 07:47:37;;;;;;;;;2.00;2.00;;;;;26.41;39.32;101767.03;5060903;28;45628;-67
2022/06/28 07:52:46;;;;;;;;;3.00;1.00;;;;;26.60;39.48;101760.41;5050489;28;45425;-68
2022/06/28 07:55:12;;;;;;;;;6.00;4.67;;;;;26.66;38.96;101765.09;5061021;28;45391;-68
2022/06/28 07:57:38;;;;;;;;;2.67;1.33;;;;;26.67;39.29;101765.94;5060232;28;45476;-69
2022/06/28 08:00:05;;;;;;;;;2.00;1.67;;;;;26.82;38.83;101755.25;5062865;28;45327;-68
2022/06/28 08:02:30;;;;;;;;;1.00;1.00;;;;;26.84;38.52;101750.31;5060465;28;45504;-67
2022/06/28 08:04:56;;;;;;;;;2.67;2.67;;;;;26.78;38.99;101745.66;5063728;28;45479;-68
2022/06/28 08:07:21;;;;;;;;;2.00;2.00;;;;;26.96;39.38;101750.41;5059627;28;45518;-68
2022/06/28 08:09:48;;;;;;;;;3.67;2.67;;;;;27.08;38.73;101757.78;5063800;28;45216;-67
2022/06/28 08:12:13;;;;;;;;;3.33;2.00;;;;;27.27;38.62;101746.59;5060631;28;45322;-68
2022/06/28 08:14:39;;;;;;;;;6.33;3.33;;;;;27.42;37.71;101747.03;5062216;28;45220;-68
2022/06/28 08:17:05;;;;;;;;;3.67;2.00;;;;;27.46;37.61;101742.72;5061688;28;46368;-68
2022/06/28 08:19:30;;;;;;;;;3.67;3.67;;;;;27.31;38.24;101737.53;5058735;28;45342;-69
2022/06/28 08:21:55;;;;;;;;;2.67;2.67;;;;;27.01;38.64;101729.13;5061998;28;45798;-67
2022/06/28 08:24:21;;;;;;;;;2.00;1.00;;;;;27.28;38.38;101732.41;5061455;28;45607;-68
2022/06/28 08:26:46;;;;;;;;;4.00;2.67;;;;;27.58;38.10;101735.25;5062940;28;46596;-68
2022/06/28 08:29:16;;;;;;;;;4.00;1.33;;;;;27.76;36.41;101729.59;5062359;28;45376;-68
2022/06/28 08:31:42;;;;;;;;;3.00;3.00;;;;;27.80;36.90;101733.63;5063037;28;45239;-68
2022/06/28 08:34:09;;;;;;;;;2.00;2.00;;;;;27.93;36.89;101731.72;5063559;28;45527;-69
2022/06/28 08:36:34;;;;;;;;;1.00;1.00;;;;;28.09;37.39;101731.00;5063332;28;45384;-69
2022/06/28 08:39:00;;;;;;;;;3.00;2.00;;;;;28.05;36.36;101719.50;5061271;28;45472;-69
2022/06/28 08:41:27;;;;;;;;;4.67;4.00;;;;;28.16;36.50;101713.09;5063473;28;45330;-68
2022/06/28 08:43:53;;;;;;;;;3.00;2.33;;;;;27.95;36.34;101712.78;5053876;28;45368;-69
2022/06/28 08:46:20;;;;;;;;;2.00;2.00;;;;;28.09;36.94;101706.72;5063957;28;45378;-68
2022/06/28 08:48:52;;;;;;;;;1.33;1.33;;;;;28.40;36.56;101708.38;5061130;28;45529;-68
2022/06/28 08:51:19;;;;;;;;;4.00;2.67;;;;;28.53;35.80;101708.09;5054926;28;45541;-68
2022/06/28 08:53:47;;;;;;;;;2.00;1.00;;;;;28.38;35.72;101699.34;5059198;28;45551;-68
2022/06/28 08:56:13;;;;;;;;;2.33;2.33;;;;;28.62;36.14;101692.66;5063810;28;45265;-68
2022/06/28 08:58:43;;;;;;;;;2.00;2.00;;;;;28.81;35.45;101687.78;5056371;28;46035;-69
2022/06/28 09:01:11;;;;;;;;;2.00;2.00;;;;;28.95;33.53;101688.38;5063590;28;45401;-68
2022/06/28 09:03:37;;;;;;;;;2.67;2.67;;;;;29.12;34.67;101685.63;5057852;28;45458;-68
2022/06/28 09:06:03;;;;;;;;;4.00;2.00;;;;;29.23;34.14;101679.13;5079285;28;47240;-68
2022/06/28 09:08:29;;;;;;;;;2.00;2.00;;;;;29.31;34.03;101668.41;5056688;28;45482;-69
2022/06/28 09:10:54;;;;;;;;;2.67;2.67;;;;;29.02;33.90;101670.34;5063413;28;45474;-68
2022/06/28 09:13:20;;;;;;;;;4.33;3.00;;;;;28.90;32.79;101674.28;5072474;28;45755;-68
2022/06/28 09:15:58;;;;;;;;;3.00;3.00;;;;;28.47;33.33;101669.94;5062502;28;47409;-68
2022/06/28 09:18:27;;;;;;;;;2.33;2.33;;;;;28.79;34.10;101662.00;5057550;28;45383;-68
2022/06/28 09:20:54;;;;;;;;;2.00;2.00;;;;;29.18;32.82;101667.84;5063682;28;45391;-68
2022/06/28 09:23:22;;;;;;;;;2.33;2.33;;;;;29.44;31.88;101660.84;5074219;28;45331;-68
2022/06/28 09:25:48;;;;;;;;;4.00;3.00;;;;;29.68;30.04;101651.19;5062690;28;45474;-67
2022/06/28 09:28:22;;;;;;;;;4.00;2.00;;;;;29.20;29.58;101646.91;5058895;28;45310;-67
2022/06/28 09:30:48;;;;;;;;;2.00;2.00;;;;;29.70;30.06;101651.78;5061812;28;45417;-67
2022/06/28 09:33:25;;;;;;;;;4.00;3.00;;;;;29.23;28.97;101637.16;5060606;28;45328;-67
2022/06/28 09:35:51;;;;;;;;;2.00;2.00;;;;;29.62;29.44;101635.41;5063213;28;45331;-68
2022/06/28 09:38:28;;;;;;;;;3.00;1.33;;;;;29.91;28.74;101628.63;5054003;28;45330;-68
2022/06/28 09:40:54;;;;;;;;;1.00;1.00;;;;;30.12;29.78;101621.41;5062079;28;45171;-68
2022/06/28 09:43:19;;;;;;;;;2.00;2.00;;;;;30.41;28.43;101630.53;5055825;28;45480;-68
2022/06/28 09:45:52;;;;;;;;;2.00;2.00;;;;;30.00;28.41;101635.53;5061408;28;45601;-68
2022/06/28 09:48:19;;;;;;;;;6.00;3.00;;;;;29.87;28.94;101633.03;5054570;28;45267;-69
2022/06/28 09:50:45;;;;;;;;;2.67;2.00;;;;;30.18;28.36;101631.56;5061845;28;45327;-68
2022/06/28 09:53:14;;;;;;;;;3.00;3.00;;;;;30.36;26.96;101627.66;5056126;28;45382;-68
2022/06/28 09:55:40;;;;;;;;;7.00;4.00;;;;;30.17;27.22;101625.13;5058028;28;46188;-69
2022/06/28 09:58:07;;;;;;;;;7.00;4.00;;;;;30.44;26.88;101610.38;5055979;28;45722;-69
2022/06/28 10:00:35;;;;;;;;;4.67;3.00;;;;;30.24;27.14;101615.72;5057886;28;45312;-69
2022/06/28 10:03:01;;;;;;;;;3.00;2.00;;;;;30.64;26.62;101612.63;5059856;28;45476;-69
2022/06/28 10:05:27;;;;;;;;;2.33;2.00;;;;;30.94;26.48;101610.22;5061686;28;46104;-67
2022/06/28 10:07:53;;;;;;;;;1.67;1.67;;;;;31.50;26.27;101611.66;5057850;28;45417;-67
2022/06/28 10:10:22;;;;;;;;;3.00;3.00;;;;;31.30;25.79;101620.75;5062356;28;45484;-68
2022/06/28 10:15:38;;;;;;;;;4.67;3.00;;;;;31.86;25.06;101597.94;5062132;28;45484;-68
2022/06/28 10:18:09;;;;;;;;;2.00;2.00;;;;;32.18;24.65;101587.53;5056832;28;45476;-68
2022/06/28 10:20:37;;;;;;;;;4.00;2.67;;;;;32.40;25.46;101584.56;5061323;28;45354;-68
2022/06/28 10:23:25;;;;;;;;;2.00;2.00;;;;;32.61;25.17;101591.13;5060517;28;45352;-68
2022/06/28 10:26:03;;;;;;;;;3.00;1.33;;;;;32.85;24.11;101583.94;5062703;28;46067;-67
2022/06/28 10:28:45;;;;;;;;;2.33;1.00;;;;;32.03;23.99;101582.63;5056224;28;45346;-66
2022/06/28 10:31:22;;;;;;;;;2.67;2.67;;;;;32.59;24.39;101576.47;5061900;28;45493;-67
2022/06/28 10:33:49;;;;;;;;;7.00;5.33;;;;;32.64;22.83;101579.34;5060491;28;45472;-68
2022/06/28 10:36:17;;;;;;;;;2.67;2.67;;;;;33.04;23.10;101570.19;5078717;27;46891;-69
2022/06/28 10:39:00;;;;;;;;;3.00;3.00;;;;;32.89;21.75;101584.22;5053532;28;45375;-69
2022/06/28 10:41:48;;;;;;;;;2.00;2.00;;;;;33.28;21.57;101577.03;5061048;28;45231;-69
2022/06/28 10:44:18;;;;;;;;;3.33;1.00;;;;;33.00;22.07;101569.91;5050174;28;45634;-69
2022/06/28 10:47:05;;;;;;;;;2.00;2.00;;;;;32.88;22.93;101563.66;5054541;28;45624;-68
2022/06/28 10:49:43;;;;;;;;;2.00;2.00;;;;;33.53;22.97;101550.84;5051449;28;45289;-69
2022/06/28 10:52:10;;;;;;;;;2.00;2.00;;;;;34.12;21.60;101562.31;5060363;28;46101;-70
2022/06/28 10:54:37;;;;;;;;;1.00;1.00;;;;;34.50;22.10;101566.47;5056925;28;45586;-69
2022/06/28 10:57:21;;;;;;;;;6.67;5.33;;;;;34.28;20.47;101549.91;5058060;28;46273;-69
2022/06/28 10:59:49;;;;;;;;;4.00;4.00;;;;;34.39;21.54;101550.72;5053274;28;45473;-68
2022/06/28 11:02:15;;;;;;;;;2.00;2.00;;;;;34.83;20.21;101564.09;5059452;28;45289;-69
2022/06/28 11:04:41;;;;;;;;;2.33;2.33;;;;;34.92;21.04;101554.72;5062998;28;45611;-69
2022/06/28 11:07:20;;;;;;;;;5.00;2.00;;;;;34.63;20.18;101556.56;5060460;28;45387;-69
2022/06/28 11:10:00;;;;;;;;;3.67;2.67;;;;;34.15;20.34;101549.63;5059980;28;45402;-69
2022/06/28 11:12:29;;;;;;;;;2.67;2.67;;;;;33.97;20.95;101548.28;5058184;28;45379;-69
2022/06/28 11:14:57;;;;;;;;;2.00;2.00;;;;;33.38;21.29;101537.59;5062879;28;45260;-69
2022/06/28 11:17:29;;;;;;;;;3.00;2.00;;;;;33.54;21.21;101536.47;5057798;28;45393;-69
2022/06/28 11:20:02;;;;;;;;;2.67;2.67;;;;;33.99;21.54;101531.91;5057954;28;45499;-69
2022/06/28 11:22:48;;;;;;;;;4.33;3.00;;;;;34.05;21.24;101535.56;5059239;28;45461;-69
2022/06/28 11:25:18;;;;;;;;;2.33;2.33;;;;;34.64;21.31;101539.31;5060286;28;46574;-69
2022/06/28 11:27:56;;;;;;;;;3.00;2.00;;;;;35.39;20.33;101534.34;5063875;28;45443;-69
2022/06/28 11:30:29;;;;;;;;;2.00;2.00;;;;;35.45;20.16;101535.16;5068460;28;45354;-69
2022/06/28 11:32:56;;;;;;;;;3.00;3.00;;;;;35.81;20.05;101530.03;5065391;28;45334;-67
2022/06/28 11:35:31;;;;;;;;;4.67;3.00;;;;;34.72;20.72;101532.25;5068857;28;45487;-69
2022/06/28 11:38:04;;;;;;;;;2.67;1.67;;;;;34.59;20.19;101525.22;5066045;28;46681;-69